SBOSBO KAO / EFKS
Speedbird OnlineSpeedbird Online KAO / EFKS

Kuusamo Airport
21:35 0°C

Location Kuusamo, Finland
Latitude: 65.987602233887
Longitude: 29.239400863647
Local Time 21:35 on 23 Feb 2024
UTC +2 hours (Europe/Helsinki)
Currency £1 equals EUR 1.17
METAR EFKS 231920Z AUTO 16016KT 9999 -SN OVC005 00/M01 Q0998
TAF TAF EFKS 231728Z 2318/2324 16015KT 9999 BKN006 BECMG 2318/2320 4000 -SN TEMPO 2320/2324 1200 SN VV010
Weather As Of 23 Feb 2024 21:35
Description Light snow
Wind 30 km/h from South (160°)
Cloud Cover 100%
Precipitation Rain: none, Snow: none
Sunrise 07:41
Sunset 16:51
NOTAM 9 active NOTAM
Rotations During the last 90 days there were
34 flights from HEL
35 flights to HEL
Web Airport Website | Wikipedia
Codes IATA: KAO
ICAO: EFKS
Altitude 264 Meter / 866 Feet
Distance 2,287 KM / 1,421 Miles
from London.
Runways
RunwayLength (m)Surface
122500Asphalt
302500Asphalt
Radio
TypeDescriptionFrequency
AFISAFIS118.65
ATISATIS114.4
Live ATC



Support Speedbird Online

© 2017-2024 Speedbird Online